Time;durP1;ratioP1;P1;durP2;ratioP2;P2;SDS_P1;SDS_P2;PMS_P1;PMS_P2;Temp;Humidity;BMP_temperature;BMP_pressure;BME280_temperature;BME280_humidity;BME280_pressure;Samples;Min_cycle;Max_cycle;Signal;HPM_P1;HPM_P2
2022/09/03 00:01:20;;;;;;;3.10;1.63;;;15.80;99.90;;;;;;5099611;28;20512;-54
2022/09/03 00:03:52;;;;;;;2.50;1.40;;;15.70;99.90;;;;;;5099100;28;20485;-53
2022/09/03 00:06:26;;;;;;;5.90;1.40;;;15.70;99.90;;;;;;5099651;28;20469;-50
2022/09/03 00:08:59;;;;;;;1.70;1.20;;;15.70;99.90;;;;;;5098759;28;20980;-50
2022/09/03 00:11:31;;;;;;;3.03;1.90;;;15.70;99.90;;;;;;5098534;28;20434;-55
2022/09/03 00:14:02;;;;;;;1.33;1.10;;;15.70;99.90;;;;;;5098596;28;20544;-55
2022/09/03 00:16:33;;;;;;;5.87;1.37;;;15.60;99.90;;;;;;5099220;28;20521;-47
2022/09/03 00:19:03;;;;;;;6.27;2.87;;;15.60;99.90;;;;;;5099566;28;20438;-55
2022/09/03 00:21:39;;;;;;;5.17;3.10;;;15.60;99.90;;;;;;5099312;28;20508;-52
2022/09/03 00:24:11;;;;;;;3.60;1.70;;;15.60;99.90;;;;;;5100458;28;20442;-53
2022/09/03 00:26:40;;;;;;;3.67;1.57;;;15.60;99.90;;;;;;5100372;28;21000;-55
2022/09/03 00:29:12;;;;;;;2.43;1.50;;;15.60;99.90;;;;;;5098980;28;20480;-51
2022/09/03 00:31:42;;;;;;;2.80;1.63;;;15.60;99.90;;;;;;5098727;28;20453;-51
2022/09/03 00:34:16;;;;;;;1.83;1.20;;;15.60;99.90;;;;;;5098470;28;20466;-56
2022/09/03 00:36:45;;;;;;;2.23;1.40;;;15.60;99.90;;;;;;5098682;28;20433;-52
2022/09/03 00:39:15;;;;;;;2.37;1.67;;;15.50;99.90;;;;;;5098827;28;20556;-49
2022/09/03 00:41:58;;;;;;;1.80;1.47;;;15.50;99.90;;;;;;5098944;28;20787;-52
2022/09/03 00:44:47;;;;;;;1.63;1.27;;;15.40;99.90;;;;;;5098378;28;20456;-50
2022/09/03 00:47:19;;;;;;;2.20;1.20;;;15.40;99.90;;;;;;5098818;28;20425;-50
2022/09/03 00:49:59;;;;;;;5.87;1.37;;;15.40;99.90;;;;;;5099170;28;20465;-52
2022/09/03 00:52:38;;;;;;;2.37;1.10;;;15.40;99.90;;;;;;5099316;28;20472;-53
2022/09/03 00:55:16;;;;;;;5.17;1.53;;;15.40;99.90;;;;;;5098952;28;20565;-54
2022/09/03 00:57:55;;;;;;;4.23;1.50;;;15.40;99.90;;;;;;5098471;28;20442;-54
2022/09/03 01:00:23;;;;;;;2.43;1.03;;;15.40;99.90;;;;;;5097867;28;20789;-54
2022/09/03 01:03:01;;;;;;;1.97;1.20;;;15.40;99.90;;;;;;5097824;28;20477;-60
2022/09/03 01:05:41;;;;;;;2.43;1.30;;;15.30;99.90;;;;;;5098057;28;20516;-55
2022/09/03 01:08:27;;;;;;;1.90;1.53;;;15.30;99.90;;;;;;5098168;28;20510;-53
2022/09/03 01:10:59;;;;;;;1.87;1.10;;;15.20;99.90;;;;;;5097689;28;20438;-50
2022/09/03 01:13:33;;;;;;;4.67;1.97;;;15.20;99.90;;;;;;5097926;28;20463;-55
2022/09/03 01:16:10;;;;;;;1.63;1.07;;;15.20;99.90;;;;;;5097802;28;20941;-56
2022/09/03 01:18:43;;;;;;;2.37;1.20;;;15.20;99.90;;;;;;5098180;28;20427;-52
2022/09/03 01:21:35;;;;;;;2.90;1.20;;;15.10;99.90;;;;;;5098069;28;20430;-50
2022/09/03 01:24:42;;;;;;;3.20;1.30;;;15.10;99.90;;;;;;5097733;28;20488;-49
2022/09/03 01:27:25;;;;;;;3.43;1.10;;;15.00;99.90;;;;;;5097227;28;20497;-56
2022/09/03 01:30:01;;;;;;;2.80;1.40;;;15.00;99.90;;;;;;5097715;28;20552;-55
2022/09/03 01:32:41;;;;;;;1.30;1.10;;;15.00;99.90;;;;;;5098299;28;20459;-49
2022/09/03 01:35:18;;;;;;;2.20;1.30;;;15.00;99.90;;;;;;5097332;28;20453;-50
2022/09/03 01:37:57;;;;;;;3.00;1.10;;;15.00;99.90;;;;;;5098035;28;20469;-51
2022/09/03 01:40:32;;;;;;;1.83;1.40;;;15.00;99.90;;;;;;5099885;28;20422;-51
2022/09/03 01:43:14;;;;;;;2.30;1.17;;;14.90;99.90;;;;;;5099437;28;20508;-58
2022/09/03 01:45:50;;;;;;;1.40;1.03;;;14.90;99.90;;;;;;5098612;28;20477;-54
2022/09/03 01:48:41;;;;;;;1.63;1.30;;;14.90;99.90;;;;;;5098198;28;20964;-54
2022/09/03 01:51:18;;;;;;;1.87;1.10;;;14.90;99.90;;;;;;5099342;28;20438;-54
2022/09/03 01:54:33;;;;;;;1.63;1.17;;;14.90;99.90;;;;;;5099343;28;20529;-55
2022/09/03 01:57:25;;;;;;;3.53;1.80;;;14.90;99.90;;;;;;5016920;28;20755;-50
2022/09/03 01:59:59;;;;;;;2.10;1.47;;;15.00;99.90;;;;;;5015497;28;20511;-54
2022/09/03 02:02:29;;;;;;;5.87;1.23;;;14.90;99.90;;;;;;5078864;28;20448;-55
2022/09/03 02:04:59;;;;;;;4.47;1.40;;;14.90;99.90;;;;;;5097285;28;20925;-51
2022/09/03 02:07:32;;;;;;;1.80;1.00;;;14.90;99.90;;;;;;5098207;28;20522;-55
2022/09/03 02:09:59;;;;;;;6.43;1.20;;;14.80;99.90;;;;;;5097059;28;20468;-55
2022/09/03 02:12:26;;;;;;;1.27;0.90;;;14.80;99.90;;;;;;5097086;28;20451;-55
2022/09/03 02:14:54;;;;;;;1.80;1.40;;;14.80;99.90;;;;;;5098142;28;20430;-58
2022/09/03 02:17:21;;;;;;;1.50;1.00;;;14.80;99.90;;;;;;5097550;28;20465;-54
2022/09/03 02:19:50;;;;;;;6.53;1.30;;;14.80;99.90;;;;;;5097321;28;20442;-55
2022/09/03 02:22:17;;;;;;;1.77;1.10;;;14.80;99.90;;;;;;5097402;28;20431;-50
2022/09/03 02:24:44;;;;;;;2.10;1.30;;;14.70;99.90;;;;;;5097740;28;20557;-51
2022/09/03 02:27:11;;;;;;;1.93;1.10;;;14.70;99.90;;;;;;5097756;28;20487;-48
2022/09/03 02:29:38;;;;;;;1.63;1.23;;;14.70;99.90;;;;;;5098198;28;20563;-53
2022/09/03 02:32:05;;;;;;;2.57;1.33;;;14.60;99.90;;;;;;5098798;28;20481;-52
2022/09/03 02:34:32;;;;;;;1.30;1.00;;;14.60;99.90;;;;;;5097306;28;20464;-50
2022/09/03 02:37:00;;;;;;;2.70;1.13;;;14.60;99.90;;;;;;5097736;28;20444;-55
2022/09/03 02:39:27;;;;;;;1.27;1.00;;;14.50;99.90;;;;;;5099158;28;20491;-53
2022/09/03 02:41:57;;;;;;;4.60;1.53;;;14.50;99.90;;;;;;5102165;28;20462;-49
2022/09/03 02:44:31;;;;;;;7.37;1.30;;;14.50;99.90;;;;;;5102446;28;20449;-52
2022/09/03 02:47:00;;;;;;;2.50;1.33;;;14.40;99.90;;;;;;5103035;28;20441;-54
2022/09/03 02:49:28;;;;;;;2.70;1.50;;;14.40;99.90;;;;;;5102112;28;20540;-50
2022/09/03 02:52:00;;;;;;;2.10;1.40;;;14.30;99.90;;;;;;5101587;28;20469;-53
2022/09/03 02:54:28;;;;;;;3.30;1.40;;;14.30;99.90;;;;;;5101831;28;20422;-52
2022/09/03 02:56:55;;;;;;;2.57;1.17;;;14.30;99.90;;;;;;5101647;28;20473;-50
2022/09/03 02:59:22;;;;;;;1.87;1.37;;;14.30;99.90;;;;;;5101376;28;20484;-54
2022/09/03 03:01:49;;;;;;;3.70;1.20;;;14.20;99.90;;;;;;5101044;28;20469;-52
2022/09/03 03:04:16;;;;;;;1.40;1.03;;;14.20;99.90;;;;;;5101052;28;20519;-52
2022/09/03 03:06:43;;;;;;;2.10;1.33;;;14.20;99.90;;;;;;5101424;28;20445;-52
2022/09/03 03:09:11;;;;;;;3.23;1.77;;;14.20;99.90;;;;;;5101201;28;20441;-54
2022/09/03 03:11:39;;;;;;;1.87;1.00;;;14.10;99.90;;;;;;5100938;28;20437;-55
2022/09/03 03:14:09;;;;;;;2.37;1.67;;;14.10;99.90;;;;;;5101055;28;20464;-46
2022/09/03 03:16:36;;;;;;;1.80;1.13;;;14.10;99.90;;;;;;5100844;28;20567;-56
2022/09/03 03:19:03;;;;;;;1.70;1.07;;;14.10;99.90;;;;;;5101044;28;20469;-49
2022/09/03 03:21:30;;;;;;;3.13;1.53;;;14.10;99.90;;;;;;5101187;28;20464;-56
2022/09/03 03:23:57;;;;;;;6.30;1.23;;;14.10;99.90;;;;;;5100636;28;20493;-56
2022/09/03 03:26:25;;;;;;;2.33;1.63;;;14.10;99.90;;;;;;5100695;28;20757;-52
2022/09/03 03:28:58;;;;;;;4.30;1.30;;;14.10;99.90;;;;;;5100326;28;20548;-56
2022/09/03 03:31:25;;;;;;;1.63;1.20;;;14.00;99.90;;;;;;5100638;28;20473;-54
2022/09/03 03:33:53;;;;;;;2.57;1.43;;;14.00;99.90;;;;;;5100579;28;20442;-55
2022/09/03 03:36:21;;;;;;;2.80;1.30;;;14.00;99.90;;;;;;5100809;28;20445;-54
2022/09/03 03:38:48;;;;;;;2.23;1.33;;;14.00;99.90;;;;;;5101054;28;20504;-55
2022/09/03 03:41:16;;;;;;;3.17;1.60;;;14.00;99.90;;;;;;5100845;28;20441;-50
2022/09/03 03:43:45;;;;;;;2.20;1.30;;;13.90;99.90;;;;;;5100433;28;20484;-53
2022/09/03 03:46:13;;;;;;;1.70;1.40;;;13.90;99.90;;;;;;5100370;28;20474;-54
2022/09/03 03:48:41;;;;;;;4.53;2.20;;;13.90;99.90;;;;;;5100452;28;20452;-51
2022/09/03 03:51:12;;;;;;;2.23;1.30;;;13.90;99.90;;;;;;5099884;28;20438;-53
2022/09/03 03:53:42;;;;;;;2.00;1.53;;;13.90;99.90;;;;;;5100180;28;20501;-53
2022/09/03 03:56:11;;;;;;;1.80;1.30;;;13.90;99.90;;;;;;5100352;28;20472;-56
2022/09/03 03:58:41;;;;;;;1.23;1.00;;;14.00;99.90;;;;;;5100014;28;20445;-50
2022/09/03 04:01:13;;;;;;;1.10;1.00;;;14.00;99.90;;;;;;5099708;28;20496;-56
2022/09/03 04:03:40;;;;;;;2.07;1.20;;;14.00;99.90;;;;;;5099740;28;20461;-55
2022/09/03 04:06:08;;;;;;;4.20;1.53;;;13.90;99.90;;;;;;5100008;28;20528;-53
2022/09/03 04:08:37;;;;;;;1.57;1.20;;;14.00;99.90;;;;;;5101126;28;20934;-53
2022/09/03 04:11:06;;;;;;;2.03;1.20;;;14.00;99.90;;;;;;5101928;28;20480;-54
2022/09/03 04:13:36;;;;;;;2.93;1.27;;;14.00;99.90;;;;;;5101958;28;20485;-50
2022/09/03 04:16:07;;;;;;;4.53;1.57;;;14.00;99.90;;;;;;5101341;28;20492;-54
2022/09/03 04:18:35;;;;;;;1.90;1.43;;;13.90;99.90;;;;;;5101207;28;20445;-57
2022/09/03 04:21:04;;;;;;;2.80;1.50;;;13.80;99.90;;;;;;5100066;28;20481;-53
2022/09/03 04:23:31;;;;;;;1.83;1.43;;;13.80;99.90;;;;;;5099873;28;20508;-54
2022/09/03 04:31:10;;;;;;;1.73;1.20;;;13.70;99.90;;;;;;5529530;22;20483;-52
2022/09/03 04:33:39;;;;;;;4.10;1.50;;;13.70;99.90;;;;;;5118070;28;20444;-52
2022/09/03 04:36:08;;;;;;;3.33;2.00;;;13.70;99.90;;;;;;5103935;28;20442;-48
2022/09/03 04:38:36;;;;;;;2.37;1.90;;;13.70;99.90;;;;;;5097634;28;21010;-53
2022/09/03 04:41:03;;;;;;;2.70;1.30;;;13.70;99.90;;;;;;5097952;28;20494;-51
2022/09/03 04:43:30;;;;;;;1.30;1.20;;;13.70;99.90;;;;;;5098220;28;20466;-50
2022/09/03 04:46:01;;;;;;;1.80;1.50;;;13.70;99.90;;;;;;5097747;28;20481;-49
2022/09/03 04:48:30;;;;;;;1.97;1.47;;;13.70;99.90;;;;;;5097771;28;20482;-50
2022/09/03 04:51:04;;;;;;;2.50;1.40;;;13.70;99.90;;;;;;5096999;28;20459;-50
2022/09/03 04:53:32;;;;;;;1.93;1.73;;;13.80;99.90;;;;;;5097477;28;20513;-51
2022/09/03 04:56:01;;;;;;;2.00;1.40;;;13.80;99.90;;;;;;5097634;28;20482;-53
2022/09/03 04:58:33;;;;;;;1.90;1.50;;;13.80;99.90;;;;;;5097325;28;20437;-53
2022/09/03 05:01:10;;;;;;;1.77;1.40;;;13.90;99.90;;;;;;5096328;28;20474;-52
2022/09/03 05:03:37;;;;;;;2.20;1.57;;;14.00;99.90;;;;;;5097067;28;20473;-48
2022/09/03 05:06:09;;;;;;;4.77;1.80;;;14.00;99.90;;;;;;5097243;28;20446;-45
2022/09/03 05:08:36;;;;;;;2.43;1.50;;;14.00;99.90;;;;;;5097711;28;20427;-50
2022/09/03 05:11:04;;;;;;;2.53;1.60;;;14.00;99.90;;;;;;5096871;28;20481;-44
2022/09/03 05:13:32;;;;;;;3.67;2.00;;;14.00;99.90;;;;;;5097290;28;20438;-51
2022/09/03 05:16:00;;;;;;;3.60;2.00;;;14.00;99.90;;;;;;5096653;28;20447;-49
2022/09/03 05:18:27;;;;;;;2.03;1.60;;;14.00;99.90;;;;;;5097106;28;20442;-46
2022/09/03 05:20:59;;;;;;;2.17;1.90;;;14.10;99.90;;;;;;5096505;28;20558;-51
2022/09/03 05:23:28;;;;;;;2.10;1.57;;;14.20;99.90;;;;;;5096863;28;20430;-45
2022/09/03 05:25:57;;;;;;;3.20;1.57;;;14.20;99.90;;;;;;5096569;28;20490;-52
2022/09/03 05:28:25;;;;;;;2.27;1.63;;;14.20;99.90;;;;;;5096409;28;20461;-48
2022/09/03 05:30:58;;;;;;;3.10;1.90;;;14.30;99.90;;;;;;5096233;28;20470;-48
2022/09/03 05:33:26;;;;;;;2.93;1.63;;;14.40;99.90;;;;;;5096391;28;20434;-50
2022/09/03 05:36:01;;;;;;;1.67;1.43;;;14.40;99.90;;;;;;5096573;28;20459;-52
2022/09/03 05:38:30;;;;;;;2.17;1.97;;;14.50;99.90;;;;;;5096103;28;20452;-55
2022/09/03 05:40:59;;;;;;;2.70;1.80;;;14.50;99.90;;;;;;5096246;28;20494;-55
2022/09/03 05:43:26;;;;;;;3.27;1.57;;;14.50;99.90;;;;;;5096639;28;20473;-48
2022/09/03 05:45:57;;;;;;;2.17;1.73;;;14.60;99.90;;;;;;5096370;28;20476;-50
2022/09/03 05:48:24;;;;;;;3.30;2.20;;;14.80;99.90;;;;;;5096552;28;20553;-53
2022/09/03 05:51:00;;;;;;;1.87;1.33;;;14.90;99.90;;;;;;5096693;28;20462;-45
2022/09/03 05:53:26;;;;;;;5.30;2.30;;;15.00;99.90;;;;;;5116258;28;20461;-44
2022/09/03 05:55:57;;;;;;;2.53;1.40;;;15.00;99.90;;;;;;5098309;28;20529;-48
2022/09/03 05:58:25;;;;;;;2.80;1.40;;;15.10;99.90;;;;;;5114641;28;20515;-47
2022/09/03 06:00:52;;;;;;;7.13;1.90;;;15.10;99.90;;;;;;5115953;28;20465;-41
2022/09/03 06:03:19;;;;;;;9.90;2.03;;;15.20;99.90;;;;;;5115282;28;20513;-38
2022/09/03 06:05:51;;;;;;;1.77;1.50;;;15.20;99.90;;;;;;5096799;28;20752;-52
2022/09/03 06:08:18;;;;;;;5.23;2.00;;;15.30;99.90;;;;;;5095091;28;20484;-48
2022/09/03 06:10:44;;;;;;;2.70;1.63;;;15.30;99.90;;;;;;5095444;28;20438;-52
2022/09/03 06:13:13;;;;;;;4.77;2.47;;;15.30;99.90;;;;;;5096531;28;20475;-51
2022/09/03 06:15:40;;;;;;;5.67;2.83;;;15.40;99.90;;;;;;5099758;28;20441;-55
2022/09/03 06:18:07;;;;;;;3.20;2.30;;;15.50;99.90;;;;;;5099947;28;21142;-55
2022/09/03 06:20:34;;;;;;;1.70;1.50;;;15.50;99.90;;;;;;5099874;28;20480;-53
2022/09/03 06:23:01;;;;;;;2.90;1.93;;;15.50;99.90;;;;;;5099546;28;20459;-51
2022/09/03 06:25:27;;;;;;;2.10;1.70;;;15.60;99.90;;;;;;5099352;28;20540;-54
2022/09/03 06:27:54;;;;;;;3.47;2.63;;;15.70;99.90;;;;;;5098553;28;20480;-50
2022/09/03 06:30:22;;;;;;;3.50;1.43;;;15.70;99.90;;;;;;5098770;28;20465;-51
2022/09/03 06:32:51;;;;;;;6.60;2.90;;;15.80;99.90;;;;;;5099268;28;20464;-52
2022/09/03 06:35:18;;;;;;;2.77;1.90;;;15.80;99.90;;;;;;5104938;28;20472;-51
2022/09/03 06:37:45;;;;;;;3.80;2.13;;;16.00;99.90;;;;;;5119059;28;20908;-52
2022/09/03 06:40:12;;;;;;;4.13;2.10;;;16.10;99.90;;;;;;5119443;28;20468;-51
2022/09/03 06:42:40;;;;;;;2.53;1.87;;;16.20;99.90;;;;;;5119156;28;20470;-49
2022/09/03 06:45:08;;;;;;;4.83;2.17;;;16.20;99.90;;;;;;5119420;28;20468;-49
2022/09/03 06:47:36;;;;;;;1.90;1.50;;;16.20;99.90;;;;;;5119210;28;20465;-56
2022/09/03 06:50:04;;;;;;;2.50;1.80;;;16.20;99.90;;;;;;5120467;28;20961;-53
2022/09/03 06:52:31;;;;;;;2.50;1.50;;;16.20;99.90;;;;;;5120027;28;20468;-48
2022/09/03 06:54:58;;;;;;;2.27;2.00;;;16.30;99.90;;;;;;5119163;28;20448;-51
2022/09/03 06:57:25;;;;;;;1.87;1.50;;;16.40;99.90;;;;;;5119163;28;20814;-56
2022/09/03 06:59:53;;;;;;;2.40;1.80;;;16.40;99.90;;;;;;5120811;28;20425;-49
2022/09/03 07:02:21;;;;;;;3.10;1.60;;;16.40;99.90;;;;;;5120210;28;20507;-49
2022/09/03 07:04:49;;;;;;;4.17;1.77;;;16.50;99.90;;;;;;5120574;28;20445;-50
2022/09/03 07:07:17;;;;;;;2.57;1.77;;;16.50;99.90;;;;;;5119927;28;20444;-53
2022/09/03 07:09:44;;;;;;;2.80;1.53;;;16.50;99.90;;;;;;5119487;28;20533;-46
2022/09/03 07:12:14;;;;;;;1.50;1.20;;;16.60;99.90;;;;;;5118735;28;20888;-48
2022/09/03 07:14:41;;;;;;;2.80;1.77;;;16.70;99.90;;;;;;5118773;28;20955;-53
2022/09/03 07:17:08;;;;;;;2.07;1.37;;;16.80;99.90;;;;;;5118411;28;20499;-46
2022/09/03 07:19:35;;;;;;;4.97;2.00;;;16.90;99.90;;;;;;5118465;28;20451;-53
2022/09/03 07:22:03;;;;;;;3.27;1.87;;;17.00;99.90;;;;;;5118017;28;20998;-48
2022/09/03 07:24:30;;;;;;;2.17;1.67;;;17.20;99.90;;;;;;5117123;28;20467;-47
2022/09/03 07:26:57;;;;;;;3.70;1.60;;;17.30;99.90;;;;;;5118416;28;20454;-53
2022/09/03 07:29:24;;;;;;;2.07;1.80;;;17.40;99.90;;;;;;5118499;28;20444;-54
2022/09/03 07:31:51;;;;;;;2.07;1.60;;;17.50;99.90;;;;;;5118038;28;20563;-54
2022/09/03 07:34:18;;;;;;;3.53;1.70;;;17.60;99.90;;;;;;5118022;28;20468;-51
2022/09/03 07:36:49;;;;;;;2.70;1.70;;;17.70;99.90;;;;;;5117689;28;20793;-49
2022/09/03 07:39:18;;;;;;;2.87;2.53;;;17.70;99.90;;;;;;5117620;28;20437;-49
2022/09/03 07:41:46;;;;;;;3.40;1.43;;;17.80;99.90;;;;;;5117852;28;20495;-52
2022/09/03 07:44:14;;;;;;;3.47;3.17;;;17.90;99.90;;;;;;5117982;28;20448;-53
2022/09/03 07:46:42;;;;;;;4.17;1.80;;;17.90;99.90;;;;;;5117754;28;20453;-51
2022/09/03 07:49:10;;;;;;;8.23;2.00;;;18.10;99.90;;;;;;5117760;28;20484;-53
2022/09/03 07:51:38;;;;;;;5.00;1.63;;;18.10;99.90;;;;;;5117491;28;20451;-51
2022/09/03 07:54:09;;;;;;;2.37;1.57;;;18.20;99.90;;;;;;5117519;28;20468;-52
2022/09/03 07:56:39;;;;;;;5.57;1.53;;;18.20;99.90;;;;;;5117812;28;20459;-50
2022/09/03 07:59:06;;;;;;;5.63;1.50;;;18.20;99.90;;;;;;5117445;28;20477;-49
2022/09/03 08:01:34;;;;;;;3.67;1.70;;;18.30;99.90;;;;;;5118243;28;20487;-44
2022/09/03 08:04:03;;;;;;;4.30;1.93;;;18.30;99.90;;;;;;5117971;28;20429;-53
2022/09/03 08:06:30;;;;;;;2.20;2.00;;;18.50;99.90;;;;;;5117975;28;20466;-52
2022/09/03 08:08:59;;;;;;;4.00;1.83;;;18.50;99.90;;;;;;5116947;28;20463;-49
2022/09/03 08:11:27;;;;;;;2.50;1.57;;;18.90;99.90;;;;;;5116939;28;20975;-51
2022/09/03 08:14:00;;;;;;;3.00;2.40;;;19.30;99.90;;;;;;5116890;28;20455;-54
2022/09/03 08:16:27;;;;;;;3.60;2.10;;;19.50;99.90;;;;;;5116746;28;21019;-50
2022/09/03 08:18:55;;;;;;;2.00;1.80;;;19.90;99.90;;;;;;5116626;28;20441;-48
2022/09/03 08:21:22;;;;;;;4.80;1.83;;;20.30;99.90;;;;;;5116442;28;21055;-48
2022/09/03 08:23:51;;;;;;;3.00;1.97;;;20.80;99.90;;;;;;5116955;28;20429;-48
2022/09/03 08:26:19;;;;;;;2.20;1.80;;;21.50;99.90;;;;;;5116452;28;20457;-53
2022/09/03 08:28:46;;;;;;;2.10;1.90;;;22.20;99.90;;;;;;5116811;28;20443;-53
2022/09/03 08:31:17;;;;;;;3.30;2.00;;;23.30;98.40;;;;;;5116785;28;20785;-50
2022/09/03 08:33:45;;;;;;;2.13;1.50;;;25.10;91.50;;;;;;5117101;28;20440;-52
2022/09/03 08:36:14;;;;;;;2.27;1.83;;;27.00;79.80;;;;;;5116954;28;20539;-51
2022/09/03 08:38:44;;;;;;;3.67;2.00;;;28.50;68.40;;;;;;5117215;28;20473;-50
2022/09/03 08:41:15;;;;;;;2.80;2.40;;;29.50;60.70;;;;;;5116168;28;20480;-46
2022/09/03 08:44:19;;;;;;;4.23;2.10;;;30.60;57.50;;;;;;5116222;28;20487;-51
2022/09/03 08:46:54;;;;;;;2.87;1.80;;;31.70;53.40;;;;;;5116314;28;20432;-54
2022/09/03 08:49:26;;;;;;;3.60;2.87;;;32.40;50.50;;;;;;5116225;28;20475;-52
2022/09/03 08:51:56;;;;;;;3.27;1.83;;;33.00;48.70;;;;;;5116380;28;20756;-53
2022/09/03 08:54:29;;;;;;;2.70;1.90;;;33.20;47.10;;;;;;5116185;28;20556;-56
2022/09/03 08:56:59;;;;;;;3.43;2.07;;;33.30;47.00;;;;;;5115825;28;20965;-50
2022/09/03 08:59:26;;;;;;;2.17;1.53;;;33.40;46.60;;;;;;5116509;28;20751;-53
2022/09/03 09:01:59;;;;;;;5.30;2.20;;;33.40;46.00;;;;;;5116097;28;20476;-54
2022/09/03 09:04:37;;;;;;;2.03;1.70;;;33.30;45.70;;;;;;5116122;28;20439;-53
2022/09/03 09:07:11;;;;;;;2.83;1.90;;;33.30;45.20;;;;;;5115861;28;20420;-50
2022/09/03 09:09:48;;;;;;;2.57;1.90;;;33.10;45.10;;;;;;5115874;28;20524;-55
2022/09/03 09:12:28;;;;;;;1.67;1.57;;;32.80;45.30;;;;;;5116199;28;20843;-52
2022/09/03 09:15:06;;;;;;;2.43;1.90;;;32.80;45.00;;;;;;5115933;28;20429;-47
2022/09/03 09:17:51;;;;;;;3.50;2.03;;;32.80;44.90;;;;;;5115675;28;20567;-53
2022/09/03 09:20:26;;;;;;;3.07;2.10;;;32.70;44.90;;;;;;5115828;28;20514;-48
2022/09/03 09:23:01;;;;;;;3.13;2.37;;;32.70;45.10;;;;;;5115275;28;20459;-50
2022/09/03 09:25:30;;;;;;;2.27;1.80;;;32.70;44.80;;;;;;5115628;28;20889;-50
2022/09/03 09:28:00;;;;;;;2.67;2.00;;;32.70;44.80;;;;;;5115429;28;20819;-47
2022/09/03 09:30:29;;;;;;;1.67;1.57;;;32.70;44.80;;;;;;5115282;28;20444;-51
2022/09/03 09:32:59;;;;;;;5.43;2.80;;;32.70;45.30;;;;;;5115274;28;20787;-47
2022/09/03 09:35:26;;;;;;;3.00;2.53;;;32.90;44.70;;;;;;5115305;28;20455;-47
2022/09/03 09:37:55;;;;;;;4.63;1.93;;;33.00;44.10;;;;;;5115436;28;20447;-53
2022/09/03 09:40:42;;;;;;;4.03;2.00;;;32.90;44.50;;;;;;5115293;28;20478;-51
2022/09/03 09:43:14;;;;;;;2.60;1.80;;;33.10;43.90;;;;;;5115439;28;20528;-50
2022/09/03 09:45:43;;;;;;;1.70;1.40;;;33.20;44.00;;;;;;5115361;28;20805;-53
2022/09/03 09:48:19;;;;;;;2.43;1.53;;;33.20;43.30;;;;;;5114360;28;20457;-51
2022/09/03 09:50:46;;;;;;;3.03;1.97;;;33.30;43.50;;;;;;5114926;28;20475;-49
2022/09/03 09:53:17;;;;;;;2.40;1.80;;;33.60;43.10;;;;;;5115330;28;20447;-45
2022/09/03 09:55:52;;;;;;;2.20;1.50;;;33.60;42.80;;;;;;5114827;28;20476;-53
2022/09/03 09:58:21;;;;;;;4.27;1.90;;;33.70;42.20;;;;;;5115012;28;20456;-49
2022/09/03 10:00:59;;;;;;;2.30;1.83;;;33.70;41.90;;;;;;5115381;28;20440;-53
2022/09/03 10:03:28;;;;;;;4.10;2.20;;;33.60;41.60;;;;;;5114957;28;20542;-51
2022/09/03 10:06:52;;;;;;;4.47;1.93;;;33.50;41.30;;;;;;5114825;28;20425;-54
2022/09/03 10:08:50;;;;;;;2.63;2.00;;;33.40;41.30;;;;;;5114464;28;20449;-51
2022/09/03 10:11:19;;;;;;;3.10;1.80;;;33.40;41.80;;;;;;5114968;28;20499;-50
2022/09/03 10:13:48;;;;;;;2.03;1.63;;;33.20;41.30;;;;;;5114646;28;20455;-48
2022/09/03 10:16:26;;;;;;;2.93;1.70;;;33.10;41.80;;;;;;5114639;28;20445;-50
2022/09/03 10:19:04;;;;;;;2.13;1.50;;;33.20;41.30;;;;;;5114774;28;20974;-48
2022/09/03 10:21:39;;;;;;;1.93;1.70;;;33.20;41.30;;;;;;5114826;28;20474;-49
2022/09/03 10:24:25;;;;;;;2.80;1.70;;;32.80;40.30;;;;;;5114750;28;20468;-51
2022/09/03 10:26:52;;;;;;;2.13;1.90;;;32.50;41.10;;;;;;5114887;28;20778;-48
2022/09/03 10:29:24;;;;;;;3.20;1.90;;;32.20;40.90;;;;;;5114856;28;20478;-52
2022/09/03 10:32:02;;;;;;;4.53;1.60;;;31.70;41.60;;;;;;5114895;28;20508;-47
2022/09/03 10:34:38;;;;;;;2.10;1.80;;;30.80;42.70;;;;;;5114681;28;20468;-51
2022/09/03 10:37:17;;;;;;;1.80;1.70;;;29.80;44.00;;;;;;5115012;28;20432;-54
2022/09/03 10:39:59;;;;;;;2.37;1.80;;;29.60;44.70;;;;;;5115084;28;20428;-49
2022/09/03 10:42:40;;;;;;;3.10;1.67;;;28.80;45.00;;;;;;5114954;28;20464;-51
2022/09/03 10:45:18;;;;;;;2.93;1.90;;;27.90;46.40;;;;;;5115431;28;20443;-56
2022/09/03 10:48:20;;;;;;;2.40;1.40;;;27.10;47.50;;;;;;5115394;28;20436;-48
2022/09/03 10:50:53;;;;;;;1.40;1.27;;;26.40;47.40;;;;;;5112042;28;20461;-47
2022/09/03 10:53:32;;;;;;;2.37;1.70;;;25.80;49.50;;;;;;5115181;28;20422;-46
2022/09/03 10:56:03;;;;;;;1.70;1.53;;;25.30;50.10;;;;;;5113794;28;20456;-45
2022/09/03 10:58:48;;;;;;;3.10;2.00;;;24.90;50.10;;;;;;5114039;28;20414;-45
2022/09/03 11:01:23;;;;;;;3.60;2.17;;;24.70;51.30;;;;;;5117298;28;20491;-40
2022/09/03 11:04:00;;;;;;;3.80;1.43;;;24.60;51.40;;;;;;5117296;28;20432;-46
2022/09/03 11:06:33;;;;;;;2.37;1.63;;;24.80;51.10;;;;;;5119643;28;20410;-42
2022/09/03 11:09:10;;;;;;;2.30;1.63;;;24.80;51.40;;;;;;5118511;28;20529;-48
2022/09/03 11:11:42;;;;;;;2.10;1.40;;;24.90;50.10;;;;;;5117259;28;20453;-48
2022/09/03 11:14:14;;;;;;;5.33;1.30;;;25.10;50.90;;;;;;5117803;28;20948;-39
2022/09/03 11:16:46;;;;;;;5.87;2.00;;;25.30;50.00;;;;;;5117751;28;20472;-52
2022/09/03 11:19:17;;;;;;;1.90;1.30;;;25.30;49.10;;;;;;5117284;28;20457;-41
2022/09/03 11:21:48;;;;;;;1.73;1.30;;;25.10;49.40;;;;;;5117087;28;20528;-52
2022/09/03 11:24:20;;;;;;;3.20;1.83;;;25.00;50.90;;;;;;5119522;28;20433;-40
2022/09/03 11:26:54;;;;;;;2.70;1.37;;;25.20;49.50;;;;;;5122129;28;20446;-39
2022/09/03 11:29:30;;;;;;;3.10;1.70;;;25.30;49.30;;;;;;5139927;28;20409;-39
2022/09/03 11:32:02;;;;;;;3.47;1.50;;;25.30;50.60;;;;;;5138825;28;20417;-43
2022/09/03 11:34:31;;;;;;;2.90;2.37;;;25.20;49.60;;;;;;5139939;28;20416;-47
2022/09/03 11:37:16;;;;;;;5.43;2.30;;;25.00;50.50;;;;;;5139980;28;20480;-36
2022/09/03 11:39:43;;;;;;;2.67;1.67;;;24.80;51.10;;;;;;5140158;28;20412;-42
2022/09/03 11:42:12;;;;;;;2.20;1.63;;;24.50;49.60;;;;;;5139728;28;20468;-35
2022/09/03 11:44:47;;;;;;;1.60;1.50;;;24.40;50.80;;;;;;5139582;28;20477;-43
2022/09/03 11:47:16;;;;;;;2.03;1.40;;;24.60;50.80;;;;;;5139659;28;20443;-43
2022/09/03 11:49:49;;;;;;;4.37;1.30;;;24.70;49.20;;;;;;5139551;28;20471;-46
2022/09/03 11:52:26;;;;;;;2.10;1.50;;;24.70;50.10;;;;;;5139688;28;20464;-38
2022/09/03 11:54:53;;;;;;;4.17;2.40;;;24.80;50.60;;;;;;5139758;28;20441;-39
2022/09/03 11:57:26;;;;;;;2.30;1.77;;;24.80;50.60;;;;;;5139703;28;20547;-43
2022/09/03 11:59:52;;;;;;;3.47;2.30;;;24.90;50.70;;;;;;5139623;28;20456;-42
2022/09/03 12:02:29;;;;;;;2.90;2.20;;;24.80;49.80;;;;;;5139369;28;20513;-48
2022/09/03 12:05:14;;;;;;;2.83;1.53;;;24.70;49.80;;;;;;5139608;28;20460;-42
2022/09/03 12:08:12;;;;;;;3.03;2.03;;;24.70;49.30;;;;;;5139556;28;20475;-36
2022/09/03 12:10:47;;;;;;;4.07;2.20;;;24.60;49.80;;;;;;5139123;28;20497;-52
2022/09/03 12:13:27;;;;;;;3.00;1.90;;;24.40;49.70;;;;;;5139836;28;20499;-45
2022/09/03 12:16:32;;;;;;;2.60;2.03;;;24.70;51.00;;;;;;5139274;28;20420;-42
2022/09/03 12:19:05;;;;;;;5.23;2.07;;;24.90;49.50;;;;;;5140059;28;20476;-37
2022/09/03 12:21:38;;;;;;;3.67;1.90;;;25.20;49.90;;;;;;5139955;28;20489;-45
2022/09/03 12:24:12;;;;;;;4.60;1.63;;;25.30;48.30;;;;;;5138638;28;20445;-45
2022/09/03 12:26:40;;;;;;;2.10;1.50;;;25.10;48.40;;;;;;5138985;28;20498;-50
2022/09/03 12:29:19;;;;;;;3.20;1.93;;;25.10;48.20;;;;;;5138882;28;20447;-35
2022/09/03 12:31:49;;;;;;;2.00;1.40;;;25.00;48.20;;;;;;5138874;28;20467;-49
2022/09/03 12:34:18;;;;;;;4.20;2.60;;;24.80;49.00;;;;;;5139159;28;20429;-53
2022/09/03 12:36:48;;;;;;;3.10;1.80;;;25.00;48.70;;;;;;5139004;28;20452;-46
2022/09/03 12:39:22;;;;;;;3.10;1.87;;;25.20;49.40;;;;;;5139048;28;20409;-42
2022/09/03 12:42:00;;;;;;;2.20;1.67;;;25.30;48.00;;;;;;5165050;22;20488;-43
2022/09/03 12:44:30;;;;;;;4.50;1.83;;;25.10;47.80;;;;;;5117799;28;20468;-45
2022/09/03 12:47:10;;;;;;;3.73;2.00;;;24.90;48.70;;;;;;5117656;28;20425;-52
2022/09/03 12:49:40;;;;;;;3.23;2.10;;;24.70;48.60;;;;;;5117735;28;20475;-44
2022/09/03 12:52:16;;;;;;;2.93;2.10;;;24.60;49.80;;;;;;5117436;28;20433;-40
2022/09/03 12:54:51;;;;;;;2.17;1.93;;;24.70;49.30;;;;;;5117861;28;20436;-47
2022/09/03 12:57:23;;;;;;;2.10;1.70;;;24.90;48.90;;;;;;5117626;28;20484;-45
2022/09/03 12:59:53;;;;;;;2.30;1.60;;;25.00;48.50;;;;;;5117799;28;20429;-42
2022/09/03 13:02:29;;;;;;;3.43;1.60;;;24.90;49.10;;;;;;5117516;28;20604;-44
2022/09/03 13:04:56;;;;;;;1.77;1.43;;;24.90;48.40;;;;;;5118384;28;20476;-50
2022/09/03 13:07:32;;;;;;;1.97;1.43;;;24.90;49.50;;;;;;5118138;28;20882;-44
2022/09/03 13:10:05;;;;;;;2.80;1.97;;;24.80;49.00;;;;;;5118338;28;20425;-45
2022/09/03 13:12:34;;;;;;;3.73;1.93;;;24.80;49.30;;;;;;5118471;28;20450;-49
2022/09/03 13:15:12;;;;;;;2.10;1.87;;;24.80;49.70;;;;;;5117475;28;20433;-46
2022/09/03 13:17:55;;;;;;;2.00;1.40;;;24.70;49.00;;;;;;5117189;28;20421;-45